Detalhes do Voo

Voltar

 DETALHES DO VÔO

Piloto: GLD1705 Lucas M. Aeronave: Piper Distância: 417NM
Origem: KCLL Destino: MM53 Duração: 2.41
Validação: Validado Tipo: Charter Matrícula: PT-GLD
ZFW: 4672 Block Fuel/Init FOB 285/130 Combustível em Voo 285
Passageiros: 5 Carga: 100 Alternativo: MMMY
Hora da Decolagem: 1522 Velocidade de Cruzeiro: 0213 Nível de Voo: F100
Regra Visual: IFR ICAO da Aeronave: AEST Unidade de Peso: Kg
Data: 12/12/2025 Observação: GOLD ACARS Rede: VATSIM
Acidentou?: Não Comentários do Validador: Pontuação do Voo 81.9395

 ROTA

ROTA CLL DCT CRP V407 JIMIE V20 HARGI DCT REX V46 ELIXI DCT 2439N09826W/N0200F085 VFR DCT
REMARKS OPR/GOLD VIRTUAL AIRLINES PER/B RMK/FROM KCLL RMK/PIC GLD1705

 PENALIDADES DO VOO

Para entender como cada item é pontuado, consulte as regras de avaliação.

Nenhuma penalidade registrada para este voo.

 ANÁLISE DO POUSO

Vento durante o pouso: 152º/7 kt Proa durante o pouso: 169
V/S do Pouso: -319 ft/min IAS do Pouso: 71 kt
Força G no pouso: 0.9728 G Bank no pouso: -2.68
Pitch no Pouso 6.59 Flaps no Pouso 0
Nav Lights ON Landing Lights ON
Beacon Lights ON Strobe Lights ON

 MAPA DO VOO

 PERFIL VERTICAL DO VOO

 EVENTOS PRINCIPAIS DO VOO

DATAEVENTOIASALTITUDE
2025-12-12 15:22:54 GOLD ACARS VERSION 3.3.6.700
2025-12-12 15:22:54 BOARDING4317
2025-12-12 15:27:27 STARTING ENGINE 27319
2025-12-12 15:27:28 BEACON LIGHT OFF & ENGINE ON7319
2025-12-12 15:28:10 STARTING ENGINE 17319
2025-12-12 15:28:31 BCN LIGHTS ON3319
2025-12-12 15:28:32 NAV LIGHTS ON3319
2025-12-12 15:35:17 LND LIGHTS ON5319
2025-12-12 15:35:44 TAXI TO THE RWY6319
2025-12-12 15:38:25 STOPPING ENGINE 21316
2025-12-12 15:38:30 STOPPING ENGINE 11316
2025-12-12 15:38:31 STARTING ENGINE 21316
2025-12-12 15:38:35 STARTING ENGINE 11316
2025-12-12 15:38:44 TAXI LIGHTS ON0316
2025-12-12 15:38:45 STB LIGHTS ON0316
2025-12-12 15:40:04 GEAR UP111322
2025-12-12 15:40:09 CLIMBING114357
2025-12-12 15:52:06 CRUISE15410065
2025-12-12 15:52:21 CLIMBING1599890
2025-12-12 15:52:28 CRUISE1599930
2025-12-12 17:24:58 DESCEND1829954
2025-12-12 17:43:32 GEAR DOWN1531033
2025-12-12 17:44:32 LANDED - VS: -319 ft/min71238
2025-12-12 17:44:51 TAXI TO THE GATE27235
2025-12-12 17:45:11 AT THE GATE3238
2025-12-12 17:45:27 TAXI LIGHTS OFF3238
2025-12-12 17:45:30 STB LIGHTS OFF3238
2025-12-12 17:46:40 STOPPING ENGINE 14238
2025-12-12 17:46:41 STOPPING ENGINE 24238
2025-12-12 17:46:47 BCN LIGHTS OFF5238
2025-12-12 17:47:25 LANDED NOT IN THE PLANNED AIRPORT [MM35] - [lat: 24,0612036029892] - [long: -98,4154015819482]5238
2025-12-12 17:47:25 FLIGHT FINISHED5238

 DADOS DO ACARS

DATA IAS GS ALTITUDE COMBUSTÍVEL USADO OAT FASE DO VOO
2025-12-12 15:24:54 5 0 317 0 18 BOARDING
2025-12-12 15:25:54 4 0 319 0 18 BOARDING
2025-12-12 15:26:54 4 0 319 0 18 BOARDING
2025-12-12 15:27:54 4 0 319 0 18 BOARDING
2025-12-12 15:28:54 5 0 319 0 18 BOARDING
2025-12-12 15:29:54 7 0 319 0 18 BOARDING
2025-12-12 15:30:55 4 0 319 0 18 BOARDING
2025-12-12 15:31:55 4 0 319 0 18 BOARDING
2025-12-12 15:32:55 7 0 319 0 18 BOARDING
2025-12-12 15:33:55 5 0 319 1 18 BOARDING
2025-12-12 15:34:55 4 0 319 1 18 BOARDING
2025-12-12 15:35:55 9 12 319 1 18 BOARDING
2025-12-12 15:36:55 1 0 316 1 18 TAXI TO THE RWY
2025-12-12 15:37:56 1 0 316 2 18 TAXI TO THE RWY
2025-12-12 15:38:56 1 0 316 3 18 TAXI TO THE RWY
2025-12-12 15:39:56 96 91 320 4 18 TAXI TO THE RWY
2025-12-12 15:40:56 135 131 1506 6 17 TAXI TO THE RWY
2025-12-12 15:41:56 123 118 2673 8 15 CLIMBING
2025-12-12 15:42:56 133 130 3506 10 13 CLIMBING
2025-12-12 15:43:57 147 151 4259 11 12 CLIMBING
2025-12-12 15:44:57 154 154 4995 13 11 CLIMBING
2025-12-12 15:45:57 152 158 5731 14 11 CLIMBING
2025-12-12 15:46:57 151 159 6506 16 11 CLIMBING
2025-12-12 15:47:57 154 165 7257 17 10 CLIMBING
2025-12-12 15:48:57 152 167 8045 18 9 CLIMBING
2025-12-12 15:49:58 151 169 8785 20 8 CLIMBING
2025-12-12 15:50:58 150 170 9465 21 8 CLIMBING
2025-12-12 15:51:58 153 176 10002 22 7 CLIMBING
2025-12-12 15:52:58 165 192 10008 24 7 CLIMBING
2025-12-12 15:53:58 176 203 9997 25 7 CRUISE
2025-12-12 15:54:58 178 205 9996 26 7 CRUISE
2025-12-12 15:55:58 179 206 9996 27 7 CRUISE
2025-12-12 15:56:59 179 206 9998 29 7 CRUISE
2025-12-12 15:57:59 179 206 9997 30 7 CRUISE
2025-12-12 15:58:59 178 205 9995 31 7 CRUISE
2025-12-12 15:59:59 178 204 9993 33 7 CRUISE
2025-12-12 16:00:59 178 204 10002 34 7 CRUISE
2025-12-12 16:01:59 178 205 10000 35 7 CRUISE
2025-12-12 16:03:00 179 205 9996 36 7 CRUISE
2025-12-12 16:04:00 180 206 9994 38 7 CRUISE
2025-12-12 16:05:00 174 200 9994 39 6 CRUISE
2025-12-12 16:06:00 172 197 9992 40 6 CRUISE
2025-12-12 16:07:00 172 197 9992 41 6 CRUISE
2025-12-12 16:08:01 172 196 9996 42 6 CRUISE
2025-12-12 16:09:01 171 196 9994 43 6 CRUISE
2025-12-12 16:10:01 171 195 9994 45 6 CRUISE
2025-12-12 16:11:01 171 195 9995 46 6 CRUISE
2025-12-12 16:12:01 170 195 9996 47 6 CRUISE
2025-12-12 16:13:01 170 194 9993 48 6 CRUISE
2025-12-12 16:14:01 171 194 9995 49 7 CRUISE
2025-12-12 16:15:02 171 193 9998 50 7 CRUISE
2025-12-12 16:16:02 171 193 9996 51 7 CRUISE
2025-12-12 16:17:02 173 194 9994 53 7 CRUISE
2025-12-12 16:18:02 171 193 9997 54 7 CRUISE
2025-12-12 16:19:02 170 193 9996 55 7 CRUISE
2025-12-12 16:20:02 172 194 9995 56 7 CRUISE
2025-12-12 16:21:03 171 193 9997 57 7 CRUISE
2025-12-12 16:22:03 171 194 9993 58 7 CRUISE
2025-12-12 16:23:03 170 193 9994 60 7 CRUISE
2025-12-12 16:24:03 172 194 9997 61 7 CRUISE
2025-12-12 16:25:03 171 194 9995 62 7 CRUISE
2025-12-12 16:26:03 171 194 9997 63 7 CRUISE
2025-12-12 16:27:04 170 194 9996 64 7 CRUISE
2025-12-12 16:28:04 170 193 9996 65 7 CRUISE
2025-12-12 16:29:04 169 192 9996 66 7 CRUISE
2025-12-12 16:30:04 170 192 9996 68 7 CRUISE
2025-12-12 16:31:05 170 193 9995 69 7 CRUISE
2025-12-12 16:32:05 172 195 9996 70 7 CRUISE
2025-12-12 16:33:05 171 195 9995 71 7 CRUISE
2025-12-12 16:34:05 172 194 9995 72 7 CRUISE
2025-12-12 16:35:06 170 194 9994 73 7 CRUISE
2025-12-12 16:36:06 171 194 10002 75 7 CRUISE
2025-12-12 16:37:06 171 195 9991 76 7 CRUISE
2025-12-12 16:38:06 173 196 9991 77 7 CRUISE
2025-12-12 16:39:06 172 195 9988 78 7 CRUISE
2025-12-12 16:40:06 171 195 9986 79 7 CRUISE
2025-12-12 16:41:07 170 194 9996 80 7 CRUISE
2025-12-12 16:42:07 176 200 9989 81 7 CRUISE
2025-12-12 16:43:07 175 198 9983 83 7 CRUISE
2025-12-12 16:44:07 172 196 9989 84 7 CRUISE
2025-12-12 16:45:07 171 197 9992 85 7 CRUISE
2025-12-12 16:46:07 175 202 9999 86 7 CRUISE
2025-12-12 16:47:07 179 207 9980 87 7 CRUISE
2025-12-12 16:48:08 178 207 9992 88 7 CRUISE
2025-12-12 16:49:08 179 208 9985 90 7 CRUISE
2025-12-12 16:50:08 179 209 9990 91 7 CRUISE
2025-12-12 16:51:08 179 208 9990 92 7 CRUISE
2025-12-12 16:52:08 180 210 9992 93 7 CRUISE
2025-12-12 16:53:08 179 210 9991 94 7 CRUISE
2025-12-12 16:54:08 180 210 9990 95 7 CRUISE
2025-12-12 16:55:09 180 210 9992 97 7 CRUISE
2025-12-12 16:56:09 180 211 9996 98 7 CRUISE
2025-12-12 16:57:09 182 208 9995 99 7 CRUISE
2025-12-12 16:58:09 180 206 9993 100 7 CRUISE
2025-12-12 16:59:09 180 205 9991 101 7 CRUISE
2025-12-12 17:00:09 180 205 9984 102 7 CRUISE
2025-12-12 17:01:10 180 205 9993 104 7 CRUISE
2025-12-12 17:02:10 181 206 9989 105 7 CRUISE
2025-12-12 17:03:10 180 206 9988 106 7 CRUISE
2025-12-12 17:04:10 180 210 9998 107 7 CRUISE
2025-12-12 17:05:10 181 211 9992 108 7 CRUISE
2025-12-12 17:06:11 180 210 9990 109 7 CRUISE
2025-12-12 17:07:11 180 210 9989 111 7 CRUISE
2025-12-12 17:08:11 180 210 9990 112 7 CRUISE
2025-12-12 17:09:11 180 213 9992 113 7 CRUISE
2025-12-12 17:10:11 180 214 9995 114 7 CRUISE
2025-12-12 17:11:12 181 214 9990 115 7 CRUISE
2025-12-12 17:12:12 181 216 9986 116 7 CRUISE
2025-12-12 17:13:12 180 215 9992 118 7 CRUISE
2025-12-12 17:14:12 181 214 9992 119 7 CRUISE
2025-12-12 17:15:12 181 214 9990 120 7 CRUISE
2025-12-12 17:16:12 181 215 9988 121 7 CRUISE
2025-12-12 17:17:13 180 214 9989 122 7 CRUISE
2025-12-12 17:18:13 180 214 9988 123 7 CRUISE
2025-12-12 17:19:13 175 215 9987 125 7 CRUISE
2025-12-12 17:20:13 180 220 9991 126 7 CRUISE
2025-12-12 17:21:13 181 221 9993 127 7 CRUISE
2025-12-12 17:22:13 180 222 9995 128 7 CRUISE
2025-12-12 17:23:14 181 222 9993 129 7 CRUISE
2025-12-12 17:24:14 181 222 9992 130 7 CRUISE
2025-12-12 17:25:14 187 229 9840 132 7 CRUISE
2025-12-12 17:26:14 196 238 9337 133 9 DESCEND
2025-12-12 17:27:14 198 239 8892 134 10 DESCEND
2025-12-12 17:28:14 206 245 8324 135 11 DESCEND
2025-12-12 17:29:15 205 244 7841 136 12 DESCEND
2025-12-12 17:30:15 206 243 7362 138 13 DESCEND
2025-12-12 17:31:15 207 243 6879 139 15 DESCEND
2025-12-12 17:32:15 208 245 6377 140 16 DESCEND
2025-12-12 17:33:15 210 242 5865 141 17 DESCEND
2025-12-12 17:34:15 215 238 5337 142 17 DESCEND
2025-12-12 17:35:16 216 232 4733 144 18 DESCEND
2025-12-12 17:36:16 218 229 4217 145 18 DESCEND
2025-12-12 17:37:16 222 231 3709 146 18 DESCEND
2025-12-12 17:38:16 216 223 3153 148 18 DESCEND
2025-12-12 17:39:16 212 218 2583 149 20 DESCEND
2025-12-12 17:40:16 212 217 1996 150 22 DESCEND
2025-12-12 17:41:17 183 186 1813 151 22 DESCEND
2025-12-12 17:42:18 165 169 1822 152 23 DESCEND
2025-12-12 17:43:18 163 160 1345 152 24 DESCEND
2025-12-12 17:44:18 90 88 354 153 28 DESCEND
2025-12-12 17:45:18 5 0 238 153 28 DESCEND
2025-12-12 17:46:18 3 0 238 154 28 AT THE GATE
2025-12-12 17:47:18 6 0 238 154 28 AT THE GATE